sensor_id;sensor_type;location;lat;lon;timestamp;temperature;humidity
43991;DHT22;29654;50.784;20.604;2022-10-19T00:03:32;18.70;57.90
43991;DHT22;29654;50.784;20.604;2022-10-19T00:08:37;18.80;57.80
43991;DHT22;29654;50.784;20.604;2022-10-19T00:13:40;18.90;57.70
43991;DHT22;29654;50.784;20.604;2022-10-19T00:18:44;18.90;57.40
43991;DHT22;29654;50.784;20.604;2022-10-19T00:23:49;18.90;57.50
43991;DHT22;29654;50.784;20.604;2022-10-19T00:28:52;18.90;57.30
43991;DHT22;29654;50.784;20.604;2022-10-19T00:33:56;18.90;57.50
43991;DHT22;29654;50.784;20.604;2022-10-19T00:39:03;19.00;57.10
43991;DHT22;29654;50.784;20.604;2022-10-19T00:50:13;19.00;57.90
43991;DHT22;29654;50.784;20.604;2022-10-19T00:55:28;19.10;57.10
43991;DHT22;29654;50.784;20.604;2022-10-19T01:00:34;19.10;57.30
43991;DHT22;29654;50.784;20.604;2022-10-19T01:05:38;19.00;57.10
43991;DHT22;29654;50.784;20.604;2022-10-19T01:10:50;19.00;57.10
43991;DHT22;29654;50.784;20.604;2022-10-19T01:16:09;19.10;57.40
43991;DHT22;29654;50.784;20.604;2022-10-19T01:21:24;19.00;57.30
43991;DHT22;29654;50.784;20.604;2022-10-19T01:26:55;19.00;57.00
43991;DHT22;29654;50.784;20.604;2022-10-19T01:32:18;18.90;57.60
43991;DHT22;29654;50.784;20.604;2022-10-19T01:37:32;18.90;57.20
43991;DHT22;29654;50.784;20.604;2022-10-19T01:42:42;18.80;57.10
43991;DHT22;29654;50.784;20.604;2022-10-19T01:47:54;18.80;57.30
43991;DHT22;29654;50.784;20.604;2022-10-19T01:53:07;18.80;57.30
43991;DHT22;29654;50.784;20.604;2022-10-19T01:58:17;18.80;57.50
43991;DHT22;29654;50.784;20.604;2022-10-19T02:03:27;18.70;57.50
43991;DHT22;29654;50.784;20.604;2022-10-19T02:08:35;18.60;57.70
43991;DHT22;29654;50.784;20.604;2022-10-19T02:13:43;18.50;58.40
43991;DHT22;29654;50.784;20.604;2022-10-19T02:18:50;18.30;58.70
43991;DHT22;29654;50.784;20.604;2022-10-19T02:23:53;18.10;59.50
43991;DHT22;29654;50.784;20.604;2022-10-19T02:28:57;18.00;59.10
43991;DHT22;29654;50.784;20.604;2022-10-19T02:34:01;17.90;59.20
43991;DHT22;29654;50.784;20.604;2022-10-19T02:39:05;17.80;59.20
43991;DHT22;29654;50.784;20.604;2022-10-19T02:44:14;17.70;59.00
43991;DHT22;29654;50.784;20.604;2022-10-19T02:49:20;17.70;59.20
43991;DHT22;29654;50.784;20.604;2022-10-19T02:54:23;17.60;58.80
43991;DHT22;29654;50.784;20.604;2022-10-19T02:59:26;17.40;58.90
43991;DHT22;29654;50.784;20.604;2022-10-19T03:04:31;17.30;59.20
43991;DHT22;29654;50.784;20.604;2022-10-19T03:09:34;17.20;59.60
43991;DHT22;29654;50.784;20.604;2022-10-19T03:14:37;17.10;59.60
43991;DHT22;29654;50.784;20.604;2022-10-19T03:19:41;17.00;59.60
43991;DHT22;29654;50.784;20.604;2022-10-19T03:24:44;17.00;59.80
43991;DHT22;29654;50.784;20.604;2022-10-19T03:29:47;16.90;60.00
43991;DHT22;29654;50.784;20.604;2022-10-19T03:34:51;16.90;59.90
43991;DHT22;29654;50.784;20.604;2022-10-19T03:39:54;16.80;59.80
43991;DHT22;29654;50.784;20.604;2022-10-19T03:44:56;16.70;59.70
43991;DHT22;29654;50.784;20.604;2022-10-19T03:50:01;16.60;59.60
43991;DHT22;29654;50.784;20.604;2022-10-19T03:55:06;16.50;59.40
43991;DHT22;29654;50.784;20.604;2022-10-19T04:00:11;16.40;59.50
43991;DHT22;29654;50.784;20.604;2022-10-19T04:05:16;16.30;59.40
43991;DHT22;29654;50.784;20.604;2022-10-19T04:10:19;16.20;59.30
43991;DHT22;29654;50.784;20.604;2022-10-19T04:15:22;16.10;59.40
43991;DHT22;29654;50.784;20.604;2022-10-19T04:20:26;16.10;59.30
43991;DHT22;29654;50.784;20.604;2022-10-19T04:25:29;16.00;59.10
43991;DHT22;29654;50.784;20.604;2022-10-19T04:30:31;16.00;59.00
43991;DHT22;29654;50.784;20.604;2022-10-19T04:35:36;15.90;59.00
43991;DHT22;29654;50.784;20.604;2022-10-19T04:40:39;15.80;59.10
43991;DHT22;29654;50.784;20.604;2022-10-19T04:45:41;15.80;59.10
43991;DHT22;29654;50.784;20.604;2022-10-19T04:50:46;15.70;59.50
43991;DHT22;29654;50.784;20.604;2022-10-19T04:55:54;15.70;59.40
43991;DHT22;29654;50.784;20.604;2022-10-19T05:00:56;15.60;59.10
43991;DHT22;29654;50.784;20.604;2022-10-19T05:06:01;15.70;59.00
43991;DHT22;29654;50.784;20.604;2022-10-19T05:11:05;15.70;58.80
43991;DHT22;29654;50.784;20.604;2022-10-19T05:16:11;15.80;58.70
43991;DHT22;29654;50.784;20.604;2022-10-19T05:21:17;15.80;58.50
43991;DHT22;29654;50.784;20.604;2022-10-19T05:26:22;15.90;58.40
43991;DHT22;29654;50.784;20.604;2022-10-19T05:31:27;15.90;58.40
43991;DHT22;29654;50.784;20.604;2022-10-19T05:36:34;15.90;58.20
43991;DHT22;29654;50.784;20.604;2022-10-19T05:41:38;15.90;58.30
43991;DHT22;29654;50.784;20.604;2022-10-19T05:46:42;16.00;58.30
43991;DHT22;29654;50.784;20.604;2022-10-19T05:51:46;16.00;58.50
43991;DHT22;29654;50.784;20.604;2022-10-19T05:56:49;16.10;58.60
43991;DHT22;29654;50.784;20.604;2022-10-19T06:01:52;16.10;58.40
43991;DHT22;29654;50.784;20.604;2022-10-19T06:06:56;16.20;58.40
43991;DHT22;29654;50.784;20.604;2022-10-19T06:11:59;16.40;58.50
43991;DHT22;29654;50.784;20.604;2022-10-19T06:17:02;16.40;58.40
43991;DHT22;29654;50.784;20.604;2022-10-19T06:22:07;16.50;58.40
43991;DHT22;29654;50.784;20.604;2022-10-19T06:27:10;16.60;58.20
43991;DHT22;29654;50.784;20.604;2022-10-19T06:32:14;16.70;58.00
43991;DHT22;29654;50.784;20.604;2022-10-19T06:37:18;16.80;58.10
43991;DHT22;29654;50.784;20.604;2022-10-19T06:42:21;16.80;58.00
43991;DHT22;29654;50.784;20.604;2022-10-19T06:47:24;16.90;57.90
43991;DHT22;29654;50.784;20.604;2022-10-19T06:52:33;17.00;57.90
43991;DHT22;29654;50.784;20.604;2022-10-19T06:57:36;17.00;58.10
43991;DHT22;29654;50.784;20.604;2022-10-19T07:02:39;17.10;57.90
43991;DHT22;29654;50.784;20.604;2022-10-19T07:07:44;17.10;57.90
43991;DHT22;29654;50.784;20.604;2022-10-19T07:12:47;17.10;58.00
43991;DHT22;29654;50.784;20.604;2022-10-19T07:17:51;17.20;58.00
43991;DHT22;29654;50.784;20.604;2022-10-19T07:22:56;17.20;58.10
43991;DHT22;29654;50.784;20.604;2022-10-19T07:27:59;17.30;58.10
43991;DHT22;29654;50.784;20.604;2022-10-19T07:33:02;17.30;57.80
43991;DHT22;29654;50.784;20.604;2022-10-19T07:38:08;17.40;57.80
43991;DHT22;29654;50.784;20.604;2022-10-19T07:43:10;17.40;57.90
43991;DHT22;29654;50.784;20.604;2022-10-19T07:48:13;17.40;57.80
43991;DHT22;29654;50.784;20.604;2022-10-19T07:53:18;17.50;57.90
43991;DHT22;29654;50.784;20.604;2022-10-19T07:58:21;17.50;57.80
43991;DHT22;29654;50.784;20.604;2022-10-19T08:03:24;17.60;57.60
43991;DHT22;29654;50.784;20.604;2022-10-19T08:08:28;17.60;57.70
43991;DHT22;29654;50.784;20.604;2022-10-19T08:13:32;17.70;57.60
43991;DHT22;29654;50.784;20.604;2022-10-19T08:18:34;17.80;57.30
43991;DHT22;29654;50.784;20.604;2022-10-19T08:23:39;17.90;57.10
43991;DHT22;29654;50.784;20.604;2022-10-19T08:28:42;17.90;56.80
43991;DHT22;29654;50.784;20.604;2022-10-19T08:33:49;18.00;56.80
43991;DHT22;29654;50.784;20.604;2022-10-19T08:38:54;18.00;56.80
43991;DHT22;29654;50.784;20.604;2022-10-19T08:44:26;18.00;56.60
43991;DHT22;29654;50.784;20.604;2022-10-19T08:49:38;18.00;56.70
43991;DHT22;29654;50.784;20.604;2022-10-19T08:54:48;18.00;56.60
43991;DHT22;29654;50.784;20.604;2022-10-19T08:59:57;18.00;56.70
43991;DHT22;29654;50.784;20.604;2022-10-19T09:05:09;18.10;56.60
43991;DHT22;29654;50.784;20.604;2022-10-19T09:10:22;18.20;56.30
43991;DHT22;29654;50.784;20.604;2022-10-19T09:15:33;18.20;55.90
43991;DHT22;29654;50.784;20.604;2022-10-19T09:20:42;18.20;55.80
43991;DHT22;29654;50.784;20.604;2022-10-19T09:25:49;18.30;55.90
43991;DHT22;29654;50.784;20.604;2022-10-19T09:30:53;18.30;55.70
43991;DHT22;29654;50.784;20.604;2022-10-19T09:35:59;18.40;55.70
43991;DHT22;29654;50.784;20.604;2022-10-19T09:41:14;18.50;55.30
43991;DHT22;29654;50.784;20.604;2022-10-19T09:46:28;18.60;55.00
43991;DHT22;29654;50.784;20.604;2022-10-19T09:51:48;18.60;54.60
43991;DHT22;29654;50.784;20.604;2022-10-19T09:56:55;18.60;54.40
43991;DHT22;29654;50.784;20.604;2022-10-19T10:02:02;18.60;54.40
43991;DHT22;29654;50.784;20.604;2022-10-19T10:07:26;18.60;54.20
43991;DHT22;29654;50.784;20.604;2022-10-19T10:12:39;18.60;54.30
43991;DHT22;29654;50.784;20.604;2022-10-19T10:17:44;18.50;54.00
43991;DHT22;29654;50.784;20.604;2022-10-19T10:22:54;18.50;54.00
43991;DHT22;29654;50.784;20.604;2022-10-19T10:28:03;18.50;53.70
43991;DHT22;29654;50.784;20.604;2022-10-19T10:33:22;18.40;53.80
43991;DHT22;29654;50.784;20.604;2022-10-19T10:38:29;18.40;53.70
43991;DHT22;29654;50.784;20.604;2022-10-19T10:43:48;18.40;54.10
43991;DHT22;29654;50.784;20.604;2022-10-19T10:48:56;18.40;54.20
43991;DHT22;29654;50.784;20.604;2022-10-19T10:54:17;18.40;54.30
43991;DHT22;29654;50.784;20.604;2022-10-19T10:59:26;18.50;53.90
43991;DHT22;29654;50.784;20.604;2022-10-19T11:04:37;18.60;54.00
43991;DHT22;29654;50.784;20.604;2022-10-19T11:09:47;18.70;54.00
43991;DHT22;29654;50.784;20.604;2022-10-19T11:15:02;18.70;53.60
43991;DHT22;29654;50.784;20.604;2022-10-19T11:20:13;18.80;53.20
43991;DHT22;29654;50.784;20.604;2022-10-19T11:25:29;18.80;53.10
43991;DHT22;29654;50.784;20.604;2022-10-19T11:30:49;18.80;53.00
43991;DHT22;29654;50.784;20.604;2022-10-19T11:35:58;18.70;52.60
43991;DHT22;29654;50.784;20.604;2022-10-19T11:41:13;18.70;53.10
43991;DHT22;29654;50.784;20.604;2022-10-19T11:46:25;18.80;53.20
43991;DHT22;29654;50.784;20.604;2022-10-19T11:51:34;18.80;53.30
43991;DHT22;29654;50.784;20.604;2022-10-19T11:56:48;18.90;53.00
43991;DHT22;29654;50.784;20.604;2022-10-19T12:02:09;19.00;52.80
43991;DHT22;29654;50.784;20.604;2022-10-19T12:07:47;19.00;52.60
43991;DHT22;29654;50.784;20.604;2022-10-19T12:13:01;19.00;52.30
43991;DHT22;29654;50.784;20.604;2022-10-19T12:18:13;19.00;52.30
43991;DHT22;29654;50.784;20.604;2022-10-19T12:23:34;19.00;52.30
43991;DHT22;29654;50.784;20.604;2022-10-19T12:28:55;18.90;52.60
43991;DHT22;29654;50.784;20.604;2022-10-19T12:34:09;18.70;52.90
43991;DHT22;29654;50.784;20.604;2022-10-19T12:39:33;18.60;53.70
43991;DHT22;29654;50.784;20.604;2022-10-19T12:45:11;18.40;53.90
43991;DHT22;29654;50.784;20.604;2022-10-19T12:51:01;18.20;54.30
43991;DHT22;29654;50.784;20.604;2022-10-19T12:56:16;18.10;55.00
43991;DHT22;29654;50.784;20.604;2022-10-19T13:01:23;18.20;54.40
43991;DHT22;29654;50.784;20.604;2022-10-19T13:06:34;18.10;54.50
43991;DHT22;29654;50.784;20.604;2022-10-19T13:17:51;17.80;55.30
43991;DHT22;29654;50.784;20.604;2022-10-19T13:28:51;17.50;56.00
43991;DHT22;29654;50.784;20.604;2022-10-19T13:33:57;17.40;56.40
43991;DHT22;29654;50.784;20.604;2022-10-19T13:39:09;17.30;56.30
43991;DHT22;29654;50.784;20.604;2022-10-19T13:44:23;17.30;56.70
43991;DHT22;29654;50.784;20.604;2022-10-19T13:50:02;17.20;57.00
43991;DHT22;29654;50.784;20.604;2022-10-19T13:55:38;17.30;57.10
43991;DHT22;29654;50.784;20.604;2022-10-19T14:01:02;17.40;57.20
43991;DHT22;29654;50.784;20.604;2022-10-19T14:06:21;17.40;56.50
43991;DHT22;29654;50.784;20.604;2022-10-19T14:11:34;17.40;56.30
43991;DHT22;29654;50.784;20.604;2022-10-19T14:16:47;17.40;56.30
43991;DHT22;29654;50.784;20.604;2022-10-19T14:21:55;17.30;56.20
43991;DHT22;29654;50.784;20.604;2022-10-19T14:27:03;17.20;56.50
43991;DHT22;29654;50.784;20.604;2022-10-19T14:32:08;17.10;57.00
43991;DHT22;29654;50.784;20.604;2022-10-19T14:37:17;17.10;57.40
43991;DHT22;29654;50.784;20.604;2022-10-19T14:42:33;17.00;57.60
43991;DHT22;29654;50.784;20.604;2022-10-19T14:47:54;16.90;57.70
43991;DHT22;29654;50.784;20.604;2022-10-19T14:53:20;16.80;58.20
43991;DHT22;29654;50.784;20.604;2022-10-19T14:58:37;16.80;58.20
43991;DHT22;29654;50.784;20.604;2022-10-19T15:03:42;16.70;57.80
43991;DHT22;29654;50.784;20.604;2022-10-19T15:08:51;16.70;57.30
43991;DHT22;29654;50.784;20.604;2022-10-19T15:13:59;16.70;57.60
43991;DHT22;29654;50.784;20.604;2022-10-19T15:19:16;16.60;57.30
43991;DHT22;29654;50.784;20.604;2022-10-19T15:24:28;16.60;57.10
43991;DHT22;29654;50.784;20.604;2022-10-19T15:29:32;16.50;56.60
43991;DHT22;29654;50.784;20.604;2022-10-19T15:34:38;16.50;56.10
43991;DHT22;29654;50.784;20.604;2022-10-19T15:39:44;16.40;56.30
43991;DHT22;29654;50.784;20.604;2022-10-19T15:44:48;16.30;55.60
43991;DHT22;29654;50.784;20.604;2022-10-19T15:49:59;16.20;55.60
43991;DHT22;29654;50.784;20.604;2022-10-19T15:55:05;16.10;55.90
43991;DHT22;29654;50.784;20.604;2022-10-19T16:00:12;16.00;56.00
43991;DHT22;29654;50.784;20.604;2022-10-19T16:05:16;15.90;56.10
43991;DHT22;29654;50.784;20.604;2022-10-19T16:10:24;15.80;55.70
43991;DHT22;29654;50.784;20.604;2022-10-19T16:15:28;15.80;56.20
43991;DHT22;29654;50.784;20.604;2022-10-19T16:20:37;15.80;56.10
43991;DHT22;29654;50.784;20.604;2022-10-19T16:25:44;15.70;56.40
43991;DHT22;29654;50.784;20.604;2022-10-19T16:30:50;15.70;56.20
43991;DHT22;29654;50.784;20.604;2022-10-19T16:36:02;15.60;56.30
43991;DHT22;29654;50.784;20.604;2022-10-19T16:41:09;15.70;56.60
43991;DHT22;29654;50.784;20.604;2022-10-19T16:46:14;15.70;56.70
43991;DHT22;29654;50.784;20.604;2022-10-19T16:51:29;15.70;56.30
43991;DHT22;29654;50.784;20.604;2022-10-19T16:56:42;15.60;56.50
43991;DHT22;29654;50.784;20.604;2022-10-19T17:01:46;15.60;56.60
43991;DHT22;29654;50.784;20.604;2022-10-19T17:06:54;15.60;56.20
43991;DHT22;29654;50.784;20.604;2022-10-19T17:12:01;15.60;56.30
43991;DHT22;29654;50.784;20.604;2022-10-19T17:17:05;15.60;56.20
43991;DHT22;29654;50.784;20.604;2022-10-19T17:22:08;15.60;56.20
43991;DHT22;29654;50.784;20.604;2022-10-19T17:27:13;15.50;56.20
43991;DHT22;29654;50.784;20.604;2022-10-19T17:32:16;15.40;56.40
43991;DHT22;29654;50.784;20.604;2022-10-19T17:37:24;15.30;56.70
43991;DHT22;29654;50.784;20.604;2022-10-19T17:42:37;15.10;57.20
43991;DHT22;29654;50.784;20.604;2022-10-19T17:47:41;15.00;57.10
43991;DHT22;29654;50.784;20.604;2022-10-19T17:52:44;14.90;57.00
43991;DHT22;29654;50.784;20.604;2022-10-19T17:57:49;14.80;56.90
43991;DHT22;29654;50.784;20.604;2022-10-19T18:02:55;14.70;56.80
43991;DHT22;29654;50.784;20.604;2022-10-19T18:07:58;14.60;57.00
43991;DHT22;29654;50.784;20.604;2022-10-19T18:13:03;14.60;57.10
43991;DHT22;29654;50.784;20.604;2022-10-19T18:18:06;14.60;57.10
43991;DHT22;29654;50.784;20.604;2022-10-19T18:23:09;14.60;57.00
43991;DHT22;29654;50.784;20.604;2022-10-19T18:28:13;14.50;56.80
43991;DHT22;29654;50.784;20.604;2022-10-19T18:33:16;14.40;56.70
43991;DHT22;29654;50.784;20.604;2022-10-19T18:38:19;14.40;56.70
43991;DHT22;29654;50.784;20.604;2022-10-19T18:43:23;14.20;56.50
43991;DHT22;29654;50.784;20.604;2022-10-19T18:48:28;14.20;56.60
43991;DHT22;29654;50.784;20.604;2022-10-19T18:53:32;14.20;56.50
43991;DHT22;29654;50.784;20.604;2022-10-19T18:58:38;14.20;56.40
43991;DHT22;29654;50.784;20.604;2022-10-19T19:03:43;14.20;56.40
43991;DHT22;29654;50.784;20.604;2022-10-19T19:08:48;14.20;56.30
43991;DHT22;29654;50.784;20.604;2022-10-19T19:13:54;14.20;56.20
43991;DHT22;29654;50.784;20.604;2022-10-19T19:18:59;14.10;56.20
43991;DHT22;29654;50.784;20.604;2022-10-19T19:24:04;14.00;56.10
43991;DHT22;29654;50.784;20.604;2022-10-19T19:29:18;14.00;55.90
43991;DHT22;29654;50.784;20.604;2022-10-19T19:34:22;14.00;55.90
43991;DHT22;29654;50.784;20.604;2022-10-19T19:39:28;13.90;55.80
43991;DHT22;29654;50.784;20.604;2022-10-19T19:44:32;13.80;55.70
43991;DHT22;29654;50.784;20.604;2022-10-19T19:49:36;13.80;55.90
43991;DHT22;29654;50.784;20.604;2022-10-19T19:54:41;13.80;55.80
43991;DHT22;29654;50.784;20.604;2022-10-19T19:59:46;13.70;55.70
43991;DHT22;29654;50.784;20.604;2022-10-19T20:04:50;13.60;55.70
43991;DHT22;29654;50.784;20.604;2022-10-19T20:09:53;13.50;55.80
43991;DHT22;29654;50.784;20.604;2022-10-19T20:14:58;13.50;55.70
43991;DHT22;29654;50.784;20.604;2022-10-19T20:20:06;13.40;55.70
43991;DHT22;29654;50.784;20.604;2022-10-19T20:25:09;13.40;55.90
43991;DHT22;29654;50.784;20.604;2022-10-19T20:30:19;13.40;55.70
43991;DHT22;29654;50.784;20.604;2022-10-19T20:35:22;13.30;55.60
43991;DHT22;29654;50.784;20.604;2022-10-19T20:40:28;13.20;55.70
43991;DHT22;29654;50.784;20.604;2022-10-19T20:45:32;13.10;55.80
43991;DHT22;29654;50.784;20.604;2022-10-19T20:50:35;12.90;55.90
43991;DHT22;29654;50.784;20.604;2022-10-19T20:55:39;12.80;56.10
43991;DHT22;29654;50.784;20.604;2022-10-19T21:00:44;12.70;56.10
43991;DHT22;29654;50.784;20.604;2022-10-19T21:05:48;12.70;56.20
43991;DHT22;29654;50.784;20.604;2022-10-19T21:10:51;12.60;56.10
43991;DHT22;29654;50.784;20.604;2022-10-19T21:15:55;12.60;56.30
43991;DHT22;29654;50.784;20.604;2022-10-19T21:20:58;12.50;56.00
43991;DHT22;29654;50.784;20.604;2022-10-19T21:26:02;12.50;56.30
43991;DHT22;29654;50.784;20.604;2022-10-19T21:31:10;12.50;56.10
43991;DHT22;29654;50.784;20.604;2022-10-19T21:36:33;12.40;56.20
43991;DHT22;29654;50.784;20.604;2022-10-19T21:41:39;12.40;56.10
43991;DHT22;29654;50.784;20.604;2022-10-19T21:46:48;12.30;56.10
43991;DHT22;29654;50.784;20.604;2022-10-19T21:51:54;12.20;56.20
43991;DHT22;29654;50.784;20.604;2022-10-19T21:56:59;12.10;56.40
43991;DHT22;29654;50.784;20.604;2022-10-19T22:02:07;12.00;56.40
43991;DHT22;29654;50.784;20.604;2022-10-19T22:07:10;11.90;56.60
43991;DHT22;29654;50.784;20.604;2022-10-19T22:12:17;11.80;56.50
43991;DHT22;29654;50.784;20.604;2022-10-19T22:17:24;11.70;56.90
43991;DHT22;29654;50.784;20.604;2022-10-19T22:22:30;11.70;56.80
43991;DHT22;29654;50.784;20.604;2022-10-19T22:27:34;11.70;56.80
43991;DHT22;29654;50.784;20.604;2022-10-19T22:32:42;11.60;56.80
43991;DHT22;29654;50.784;20.604;2022-10-19T22:37:46;11.60;56.90
43991;DHT22;29654;50.784;20.604;2022-10-19T22:42:51;11.50;56.90
43991;DHT22;29654;50.784;20.604;2022-10-19T22:47:58;11.50;56.80
43991;DHT22;29654;50.784;20.604;2022-10-19T22:53:02;11.50;56.70
43991;DHT22;29654;50.784;20.604;2022-10-19T22:58:06;11.50;56.50
43991;DHT22;29654;50.784;20.604;2022-10-19T23:03:13;11.40;56.50
43991;DHT22;29654;50.784;20.604;2022-10-19T23:08:29;11.30;56.40
43991;DHT22;29654;50.784;20.604;2022-10-19T23:13:35;11.10;56.60
43991;DHT22;29654;50.784;20.604;2022-10-19T23:18:42;11.10;56.50
43991;DHT22;29654;50.784;20.604;2022-10-19T23:23:47;11.10;56.50
43991;DHT22;29654;50.784;20.604;2022-10-19T23:28:51;11.10;56.40
43991;DHT22;29654;50.784;20.604;2022-10-19T23:34:01;11.00;56.30
43991;DHT22;29654;50.784;20.604;2022-10-19T23:39:06;11.00;56.60
43991;DHT22;29654;50.784;20.604;2022-10-19T23:44:09;11.00;56.60
43991;DHT22;29654;50.784;20.604;2022-10-19T23:49:19;10.90;56.90
43991;DHT22;29654;50.784;20.604;2022-10-19T23:54:24;10.90;56.90
43991;DHT22;29654;50.784;20.604;2022-10-19T23:59:33;10.90;56.90
